METAR stanice u blizini

 

LYBE - Beograd / Surčin, Srbija
Ažurirano: 18/07/2024 23:30
Vedro
Vedro
 Pravac vetra SSI
Vetar: SSI 11 km/h
Temperatura: 28°C
Heat Index: 29°C
Tačka rose: 19°C
Vlažnost: 58%
Pritisak: 1016 hPa
Pregled: Vedro
Vidljivost: greater than 10 km
2024/07/18 21:30 LYBE 182130Z 03006KT CAVOK 28/19 Q1016 NOSIG
LYBT - Beograd / Batajnica, Srbija
Ažurirano: 18/07/2024 23:30
Vedro
Vedro
 Pravac vetra SSI
Vetar: SSI 13 km/h
Temperatura: 27°C
Heat Index: 29°C
Tačka rose: 20°C
Vlažnost: 66%
Pritisak: 1016 hPa
Pregled: Vedro
Vidljivost: greater than 10 km
2024/07/18 21:30 LYBT 182130Z 02007KT CAVOK 27/20 Q1016 NOSIG
LYVR - Vršac, Srbija
Ažurirano: 18/07/2024 23:30
Vedro
Vedro
 Pravac vetra SI
Vetar: SI 11 km/h
Temperatura: 27°C
Heat Index: 29°C
Tačka rose: 20°C
Vlažnost: 66%
Pritisak: 1016 hPa
Pregled: Vedro
Vidljivost: greater than 10 km
2024/07/18 21:30 LYVR 182130Z AUTO 04006KT 020V080 CAVOK 27/20 Q1016
 
LYKV - Lađevci, Srbija
Ažurirano: 18/07/2024 23:30
Vedro
Vedro
 Pravac vetra calm
Vetar: Tišina
Temperatura: 25°C
Tačka rose: 21°C
Vlažnost: 79%
Pritisak: 1017 hPa
Pregled: Vedro
Vidljivost: greater than 10 km
2024/07/18 21:30 LYKV 182130Z 00000KT CAVOK 25/21 Q1017 NOSIG
LYNI - Niš, Srbija
Ažurirano: 18/07/2024 23:30
Vedro
Vedro
 Pravac vetra S
Vetar: S 11 km/h
Temperatura: 29°C
Heat Index: 31°C
Tačka rose: 21°C
Vlažnost: 62%
Pritisak: 1017 hPa
Pregled: Vedro
Vidljivost: greater than 10 km
2024/07/18 21:30 LYNI 182130Z 01006KT 330V050 CAVOK 29/21 Q1017 NOSIG
BKPR - Priština, Srbija
Ažurirano: 18/07/2024 23:30
Vedro
Vedro
 Pravac vetra varies
Vetar: varies 4 km/h
Temperatura: 23°C
Tačka rose: 17°C
Vlažnost: 69%
Pritisak: 1019 hPa
Pregled: Vedro
Vidljivost: greater than 10 km
2024/07/18 21:30 BKPR 182130Z VRB02KT CAVOK 23/17 Q1019 NOSIG
 
LHPP - Pecs / Pogany, Hungary
Ažurirano: 18/07/2024 23:15
Vedro
Vedro
 Pravac vetra SI
Vetar: SI 9 km/h
Temperatura: 26°C
Tačka rose: 20°C
Vlažnost: 70%
Pritisak: 1018 hPa
Pregled: Vedro
Vidljivost: greater than 10 km
2024/07/18 21:15 LHPP 182115Z AUTO 05005KT CAVOK 26/20 Q1018
LHUD - Szeged, Hungary
Ažurirano: 04/07/2019 01:45
NOT Current
Vedro
Vedro
 Pravac vetra S
Vetar: S 7 km/h
Temperatura: 18°C
Tačka rose: 13°C
Vlažnost: 73%
Pritisak: 1019 hPa
Pregled: Vedro
Vidljivost: greater than 10 km
2019/07/03 23:45 LHUD 032345Z 35004KT CAVOK 18/13 Q1019
LRTR - Timisoara, Romania
Ažurirano: 18/07/2024 23:00
Vedro
Vedro
 Pravac vetra S
Vetar: S 19 km/h
Temperatura: 27°C
Heat Index: 28°C
Tačka rose: 19°C
Vlažnost: 62%
Pritisak: 1016 hPa
Pregled: Vedro
Vidljivost: greater than 10 km
2024/07/18 21:00 LRTR 182100Z 01010KT CAVOK 27/19 Q1016
 
LRCV - Craiova, Romania
Ažurirano: 18/07/2024 23:00
Vedro
Vedro
 Pravac vetra calm
Vetar: Tišina
Temperatura: 23°C
Tačka rose: 21°C
Vlažnost: 89%
Pritisak: 1017 hPa
Pregled: Vedro
Vidljivost: greater than 10 km
2024/07/18 21:00 LRCV 182100Z 00000KT CAVOK 23/21 Q1017
LBSF - Sofia, Bulgaria
Ažurirano: 18/07/2024 23:30
Vedro
Vedro
 Pravac vetra J
Vetar: J 20 km/h
Temperatura: 23°C
Tačka rose: 17°C
Vlažnost: 69%
Pritisak: 1020 hPa
Pregled: Vedro
Vidljivost: greater than 10 km
2024/07/18 21:30 LBSF 182130Z AUTO 17011KT CAVOK 23/17 Q1020 NOSIG
LWSK - Skoplje, Makedonija
Ažurirano: 18/07/2024 23:20
Slaba kiša, Few clouds
Slaba kiša, Few clouds
 Pravac vetra JI
Vetar: JI 13 km/h
Temperatura: 25°C
Tačka rose: 18°C
Vlažnost: 65%
Pritisak: 1016 hPa
Pregled: Light Rain
Oblaci: Few Clouds
Vidljivost: 10 km
Cloud details: Few Clouds 1524 m
2024/07/18 21:20 LWSK 182120Z 13007KT 100V160 9999 -RA FEW050CB 25/18 Q1016 NOSIG
 
LYPG - Podgorica, Crna Gora
Ažurirano: 18/07/2024 23:30
Vedro
Vedro
 Pravac vetra S
Vetar: S 11 km/h
Temperatura: 31°C
Heat Index: 31°C
Tačka rose: 16°C
Vlažnost: 40%
Pritisak: 1013 hPa
Pregled: Vedro
Vidljivost: greater than 10 km
2024/07/18 21:30 LYPG 182130Z 36006KT 330V040 CAVOK 31/16 Q1013 NOSIG
LQSA - Sarajevo, Bosna i Hercegovina
Ažurirano: 18/07/2024 23:30
Vedro
Vedro
 Pravac vetra JJI
Vetar: JJI 6 km/h
Temperatura: 20°C
Tačka rose: 20°C
Vlažnost: 100%
Pritisak: 1021 hPa
Pregled: Vedro
Vidljivost: greater than 10 km
2024/07/18 21:30 LQSA 182130Z 16003KT 110V190 CAVOK 20/20 Q1021 NOSIG
LDOS - Osijek, Hrvatksa
Ažurirano: 18/07/2024 23:30
Vedro
Vedro
 Pravac vetra SSI
Vetar: SSI 15 km/h
Temperatura: 26°C
Tačka rose: 20°C
Vlažnost: 70%
Pritisak: 1017 hPa
Pregled: Vedro
Vidljivost: greater than 10 km
2024/07/18 21:30 LDOS 182130Z 03008KT CAVOK 26/20 Q1017